Tel Aviv, Israel

5:27 AM IST on November 01, 2014 (GMT +0200)
Ben-Shemen | Change Station
CLOSE
Current Station
Personal Weather Station
Location: Moshav 56 Maivar, SHFELA
Elevation: 197 ft
Nearby Weather Stations

Elev 197 ft 31.95 °N, 34.92 °E | Updated 2 minutes ago

Mostly Cloudy
Mostly Cloudy
59.4 °F
Feels Like 59.4 °F
N
1.6
Wind Variable Wind from SE
Gusts 3.1 mph

Today
High -- | Low -- °F
--% Chance of Precip.
Yesterday
High -- | Low -- °F
Precip. -- in
5:56 AM 4:50 PM
First Quarter, 62% visible
Pressure 29.98 in
Visibility 6.2 miles
Clouds Mostly Cloudy 3500 ft
Dew Point 59 °F
Humidity 99%
Rainfall 0.00 in
Snow Depth Not available.
UV 0 out of 12
Pollen Not available.
Air Quality Not available.
Flu Activity Not available.
METAR LLBG 010320Z 18008KT 9999 BKN035 17/15 Q1015 TEMPO 9000 RA FEW025TCU BKN030

More Conditions Fewer Conditions

Pressure 29.98 in
Visibility 6.2 miles
Clouds Mostly Cloudy 3500 ft
Dew Point 59 °F
Humidity 99%
Rainfall 0.00 in
Snow Depth Not available.
UV 0 out of 12
Pollen Not available.
Air Quality Not available.
Flu Activity Not available.
METAR LLBG 010320Z 18008KT 9999 BKN035 17/15 Q1015 TEMPO 9000 RA FEW025TCU BKN030

More Conditions Fewer Conditions

10-Day Weather Forecast

Almanac

Astronomy

Nov. 01, 2014 Rise Set
Actual Time
Civil Twilight
Nautical Twilight
Astronomical Twilight
Moon
Length of Visible Light
Length of Day
Tomorrow will be .
, % of the Moon is Illuminated

Today's Extremes

Country Highs Country Lows

Community

WunderPhotos

Upload Photos

1,766,844 photos uploaded!

WunderBlogs® & News

Nearby

Air Quality

  Air Quality AQ Index Pollutant
Not available.

Snow Depth

Station Depth Elevation

Earthquake Activity

City Distance Mag. Time & Date
Minimum magnitude displayed is 2.5.

Coastal Water Temperatures

Place Temperature

Nearby Weather Stations